Terminal Aerodrome Forecast
Issued by NWS Rapid City, SD

Home | Current Version | Previous Version | Text Only | Print | Product List | Glossary Off
Versions: 1 2 3 4 5 6 7 8 9 10 11 12 13

000
FTUS43 KUNR 261130
TAFRAP
TAF
KRAP 261130Z 2612/2712 VRB05KT P6SM SCT150
     FM261500 12012KT P6SM SCT150
     FM270000 36014KT P6SM BKN120
      TEMPO 2700/2704 -TSRA BKN060CB=

USA.gov is the U.S. government's official web portal to all federal, state and local government web resources and services.